createdAt,value
2023-10-06T00:00:24.597Z,7.10
2023-10-06T00:02:58.389Z,7.08
2023-10-06T00:05:25.001Z,7.06
2023-10-06T00:07:54.438Z,7.07
2023-10-06T00:10:20.999Z,7.14
2023-10-06T00:12:48.185Z,7.26
2023-10-06T00:15:15.399Z,7.15
2023-10-06T00:17:41.970Z,7.12
2023-10-06T00:20:11.988Z,7.18
2023-10-06T00:22:38.578Z,7.11
2023-10-06T00:25:05.061Z,6.91
2023-10-06T00:27:32.889Z,6.71
2023-10-06T00:30:00.355Z,6.72
2023-10-06T00:32:27.120Z,6.81
2023-10-06T00:34:58.700Z,6.74
2023-10-06T00:37:25.136Z,6.70
2023-10-06T00:39:54.176Z,6.64
2023-10-06T00:42:22.102Z,6.59
2023-10-06T00:44:48.922Z,6.53
2023-10-06T00:47:15.688Z,6.55
2023-10-06T00:49:42.665Z,6.48
2023-10-06T00:52:12.235Z,6.54
2023-10-06T00:54:42.181Z,6.52
2023-10-06T00:57:10.474Z,6.69
2023-10-06T00:59:37.048Z,6.62
2023-10-06T01:02:05.095Z,6.40
2023-10-06T01:04:31.640Z,6.34
2023-10-06T01:06:58.099Z,6.22
2023-10-06T01:09:24.582Z,6.23
2023-10-06T01:11:52.435Z,6.19
2023-10-06T01:14:21.719Z,6.08
2023-10-06T01:16:48.763Z,6.10
2023-10-06T01:19:15.193Z,6.11
2023-10-06T01:21:48.000Z,5.98
2023-10-06T01:24:18.535Z,5.97
2023-10-06T01:26:45.572Z,5.98
2023-10-06T01:29:12.775Z,6.15
2023-10-06T01:31:50.226Z,6.03
2023-10-06T01:34:16.838Z,5.93
2023-10-06T01:36:43.528Z,5.90
2023-10-06T01:39:10.467Z,5.83
2023-10-06T01:41:37.719Z,5.72
2023-10-06T01:44:04.406Z,5.64
2023-10-06T01:46:30.990Z,5.68
2023-10-06T01:48:58.400Z,5.69
2023-10-06T01:51:24.803Z,5.63
2023-10-06T01:53:51.778Z,5.67
2023-10-06T01:56:19.435Z,5.68
2023-10-06T01:58:45.860Z,5.74
2023-10-06T02:01:13.568Z,5.85
2023-10-06T02:03:41.679Z,5.87
2023-10-06T02:06:10.331Z,5.87
2023-10-06T02:08:36.767Z,5.90
2023-10-06T02:11:03.441Z,5.85
2023-10-06T02:13:30.069Z,5.93
2023-10-06T02:15:57.283Z,6.00
2023-10-06T02:18:25.248Z,6.06
2023-10-06T02:20:51.712Z,5.97
2023-10-06T02:23:19.850Z,5.84
2023-10-06T02:25:48.950Z,5.74
2023-10-06T02:28:15.289Z,5.77
2023-10-06T02:30:41.759Z,5.75
2023-10-06T02:33:08.954Z,5.77
2023-10-06T02:35:40.823Z,5.73
2023-10-06T02:38:10.583Z,5.66
2023-10-06T02:40:37.064Z,5.64
2023-10-06T02:43:04.040Z,5.53
2023-10-06T02:45:33.726Z,5.38
2023-10-06T02:48:00.188Z,5.38
2023-10-06T02:50:27.250Z,5.48
2023-10-06T02:52:55.474Z,5.52
2023-10-06T02:55:21.900Z,5.40
2023-10-06T02:57:52.671Z,5.41
2023-10-06T03:00:22.183Z,5.62
2023-10-06T03:02:49.760Z,5.51
2023-10-06T03:05:16.882Z,5.74
2023-10-06T03:07:43.994Z,5.53
2023-10-06T03:10:11.751Z,5.41
2023-10-06T03:12:39.476Z,5.33
2023-10-06T03:15:10.022Z,5.34
2023-10-06T03:17:36.547Z,5.39
2023-10-06T03:20:04.618Z,5.35
2023-10-06T03:22:31.078Z,5.48
2023-10-06T03:24:57.822Z,5.14
2023-10-06T03:27:29.260Z,5.17
2023-10-06T03:29:55.864Z,5.18
2023-10-06T03:32:27.245Z,5.08
2023-10-06T03:34:54.011Z,5.04
2023-10-06T03:37:20.531Z,5.15
2023-10-06T03:39:46.949Z,5.12
2023-10-06T03:42:13.684Z,4.97
2023-10-06T03:44:40.449Z,4.96
2023-10-06T03:47:07.042Z,4.99
2023-10-06T03:49:33.589Z,4.97
2023-10-06T03:52:00.100Z,4.96
2023-10-06T03:54:28.898Z,4.97
2023-10-06T03:56:56.212Z,4.89
2023-10-06T03:59:23.091Z,4.86
2023-10-06T04:01:50.758Z,4.90
2023-10-06T04:04:18.998Z,4.90
2023-10-06T04:06:49.833Z,5.02
2023-10-06T04:09:16.147Z,5.02
2023-10-06T04:11:48.578Z,4.94
2023-10-06T04:14:14.984Z,4.95
2023-10-06T04:16:42.163Z,4.92
2023-10-06T04:19:08.778Z,4.89
2023-10-06T04:21:38.155Z,5.03
2023-10-06T04:24:04.929Z,5.01
2023-10-06T04:26:32.649Z,5.05
2023-10-06T04:28:59.122Z,5.01
2023-10-06T04:31:27.697Z,5.01
2023-10-06T04:33:54.177Z,5.02
2023-10-06T04:36:20.692Z,5.03
2023-10-06T04:38:47.675Z,4.97
2023-10-06T04:41:15.791Z,4.88
2023-10-06T04:43:44.617Z,4.89
2023-10-06T04:46:12.263Z,4.84
2023-10-06T04:48:38.956Z,4.84
2023-10-06T04:51:10.797Z,4.83
2023-10-06T04:53:37.751Z,4.77
2023-10-06T04:56:07.718Z,4.75
2023-10-06T04:58:37.280Z,4.81
2023-10-06T05:01:04.980Z,4.79
2023-10-06T05:03:32.406Z,4.67
2023-10-06T05:05:59.388Z,4.66
2023-10-06T05:08:26.438Z,4.60
2023-10-06T05:10:54.589Z,4.62
2023-10-06T05:13:21.213Z,4.67
2023-10-06T05:15:47.972Z,4.62
2023-10-06T05:18:14.372Z,4.66
2023-10-06T05:20:42.218Z,4.53
2023-10-06T05:23:08.869Z,4.59
2023-10-06T05:25:44.233Z,4.39
2023-10-06T05:28:10.780Z,4.46
2023-10-06T05:30:39.326Z,4.37
2023-10-06T05:33:07.146Z,4.47
2023-10-06T05:35:35.688Z,4.65
2023-10-06T05:38:09.740Z,4.73
2023-10-06T05:40:36.780Z,4.62
2023-10-06T05:43:05.685Z,4.70
2023-10-06T05:45:38.580Z,4.73
2023-10-06T05:48:05.898Z,4.59
2023-10-06T05:50:36.797Z,4.69
2023-10-06T05:53:05.089Z,4.76
2023-10-06T05:55:35.130Z,4.82
2023-10-06T05:58:03.143Z,4.83
2023-10-06T06:00:30.927Z,4.83
2023-10-06T06:03:01.697Z,4.90
2023-10-06T06:05:35.781Z,4.91
2023-10-06T06:08:04.048Z,4.94
2023-10-06T06:10:30.585Z,5.06
2023-10-06T06:13:01.374Z,5.19
2023-10-06T06:15:28.589Z,5.24
2023-10-06T06:17:55.375Z,5.40
2023-10-06T06:20:23.193Z,5.32
2023-10-06T06:22:50.108Z,5.38
2023-10-06T06:25:16.929Z,5.44
2023-10-06T06:27:43.631Z,5.53
2023-10-06T06:30:11.601Z,5.39
2023-10-06T06:32:38.473Z,5.51
2023-10-06T06:35:05.468Z,5.73
2023-10-06T06:37:34.409Z,5.70
2023-10-06T06:40:02.336Z,5.83
2023-10-06T06:42:28.732Z,6.06
2023-10-06T06:44:57.159Z,5.91
2023-10-06T06:47:25.388Z,5.79
2023-10-06T06:49:53.517Z,5.91
2023-10-06T06:52:22.038Z,5.88
2023-10-06T06:54:53.346Z,6.10
2023-10-06T06:57:19.872Z,6.00
2023-10-06T06:59:46.882Z,6.13
2023-10-06T07:02:36.478Z,6.22
2023-10-06T07:05:03.284Z,6.39
2023-10-06T07:07:29.933Z,6.52
2023-10-06T07:09:57.428Z,6.56
2023-10-06T07:12:26.837Z,6.71
2023-10-06T07:14:53.253Z,6.96
2023-10-06T07:17:19.802Z,7.00
2023-10-06T07:19:48.466Z,7.02
2023-10-06T07:22:15.119Z,7.24
2023-10-06T07:24:44.059Z,7.33
2023-10-06T07:27:10.613Z,7.70
2023-10-06T07:29:37.687Z,7.99
2023-10-06T07:32:04.833Z,7.95
2023-10-06T07:34:32.283Z,8.01
2023-10-06T07:36:59.308Z,8.25
2023-10-06T07:39:26.058Z,8.32
2023-10-06T07:41:54.958Z,8.33
2023-10-06T07:44:25.154Z,8.48
2023-10-06T07:46:51.972Z,8.45
2023-10-06T07:49:20.272Z,8.85
2023-10-06T07:51:47.046Z,8.90
2023-10-06T07:54:15.600Z,9.03
2023-10-06T07:56:44.621Z,9.35
2023-10-06T07:59:11.381Z,9.59
2023-10-06T08:01:38.054Z,9.96
2023-10-06T08:04:04.825Z,9.84
2023-10-06T08:06:33.165Z,9.82
2023-10-06T08:09:00.287Z,9.87
2023-10-06T08:11:27.171Z,9.90
2023-10-06T08:13:53.890Z,10.24
2023-10-06T08:16:21.861Z,10.49
2023-10-06T08:18:48.746Z,10.58
2023-10-06T08:21:18.152Z,10.79
2023-10-06T08:23:46.309Z,10.62
2023-10-06T08:26:14.103Z,10.78
2023-10-06T08:28:40.724Z,10.93
2023-10-06T08:31:17.592Z,11.33
2023-10-06T08:33:44.675Z,11.26
2023-10-06T08:36:11.209Z,11.44
2023-10-06T08:38:38.258Z,11.59
2023-10-06T08:41:05.070Z,11.76
2023-10-06T08:43:32.194Z,11.84
2023-10-06T08:46:02.011Z,12.36
2023-10-06T08:48:33.769Z,11.94
2023-10-06T08:51:01.516Z,12.28
2023-10-06T08:53:33.981Z,11.87
2023-10-06T08:56:00.684Z,11.99
2023-10-06T08:58:27.747Z,12.14
2023-10-06T09:00:58.863Z,12.39
2023-10-06T09:03:28.196Z,12.50
2023-10-06T09:05:57.465Z,12.62
2023-10-06T09:08:27.663Z,12.81
2023-10-06T09:10:55.178Z,12.89
2023-10-06T09:13:22.800Z,12.93
2023-10-06T09:16:01.995Z,13.33
2023-10-06T09:18:30.950Z,13.45
2023-10-06T09:21:32.044Z,13.62
2023-10-06T09:24:14.690Z,13.51
2023-10-06T09:26:41.444Z,13.69
2023-10-06T09:29:09.216Z,13.75
2023-10-06T09:31:40.417Z,13.67
2023-10-06T09:34:16.014Z,13.71
2023-10-06T09:36:46.268Z,14.00
2023-10-06T09:39:13.746Z,13.89
2023-10-06T09:41:43.210Z,14.32
2023-10-06T09:44:12.107Z,14.10
2023-10-06T09:46:41.755Z,14.55
2023-10-06T09:49:11.310Z,14.54
2023-10-06T09:51:40.767Z,14.68
2023-10-06T09:54:08.176Z,14.54
2023-10-06T09:56:35.032Z,14.72
2023-10-06T09:59:04.781Z,14.62
2023-10-06T10:01:34.341Z,15.05
2023-10-06T10:04:02.682Z,15.06
2023-10-06T10:06:29.908Z,15.01
2023-10-06T10:09:00.289Z,15.13
2023-10-06T10:11:36.652Z,15.22
2023-10-06T10:14:15.334Z,15.31
2023-10-06T10:17:05.902Z,15.31
2023-10-06T10:19:33.261Z,15.47
2023-10-06T10:22:00.812Z,16.06
2023-10-06T10:26:56.722Z,16.25
2023-10-06T10:29:25.365Z,16.42
2023-10-06T10:32:08.362Z,16.22
2023-10-06T10:34:35.220Z,16.48
2023-10-06T10:37:08.888Z,16.89
2023-10-06T10:39:52.740Z,16.83
2023-10-06T10:42:24.264Z,17.33
2023-10-06T10:45:12.401Z,17.11
2023-10-06T10:47:39.989Z,17.44
2023-10-06T10:50:07.253Z,17.76
2023-10-06T10:52:34.121Z,17.56
2023-10-06T10:55:01.464Z,18.08
2023-10-06T10:57:28.055Z,17.77
2023-10-06T11:00:00.739Z,17.37
2023-10-06T11:02:56.731Z,17.85
2023-10-06T11:05:24.524Z,17.72
2023-10-06T11:08:04.756Z,18.26
2023-10-06T11:10:32.971Z,18.15
2023-10-06T11:13:20.107Z,18.12
2023-10-06T11:15:47.662Z,18.37
2023-10-06T11:18:14.819Z,18.82
2023-10-06T11:20:50.761Z,18.46
2023-10-06T11:23:17.304Z,18.81
2023-10-06T11:25:55.845Z,18.79
2023-10-06T11:28:26.393Z,18.55
2023-10-06T11:33:35.357Z,19.01
2023-10-06T11:36:07.137Z,18.65
2023-10-06T11:38:35.711Z,19.07
2023-10-06T11:41:05.969Z,19.09
2023-10-06T11:43:33.397Z,19.18
2023-10-06T11:46:04.611Z,19.44
2023-10-06T11:48:35.658Z,19.11
2023-10-06T11:51:04.248Z,19.08
2023-10-06T11:53:31.106Z,19.53
2023-10-06T11:56:09.582Z,19.71
2023-10-06T11:58:39.312Z,19.65
2023-10-06T12:01:06.409Z,19.51
2023-10-06T12:03:38.810Z,19.52
2023-10-06T12:06:06.918Z,19.50
2023-10-06T12:08:33.788Z,19.83
2023-10-06T12:11:00.362Z,19.54
2023-10-06T12:13:26.884Z,19.67
2023-10-06T12:15:54.133Z,19.69
2023-10-06T12:18:20.858Z,19.64
2023-10-06T12:20:47.991Z,20.04
2023-10-06T12:23:14.619Z,19.93
2023-10-06T12:25:41.417Z,19.84
2023-10-06T12:28:08.463Z,19.97
2023-10-06T12:30:34.955Z,20.00
2023-10-06T12:33:08.819Z,20.09
2023-10-06T12:35:37.806Z,20.20
2023-10-06T12:38:04.635Z,20.26
2023-10-06T12:40:39.842Z,20.25
2023-10-06T12:43:06.232Z,20.51
2023-10-06T12:45:32.778Z,20.05
2023-10-06T12:48:02.160Z,20.04
2023-10-06T12:50:29.036Z,20.32
2023-10-06T12:52:55.391Z,20.10
2023-10-06T12:55:22.436Z,20.06
2023-10-06T12:57:50.597Z,20.38
2023-10-06T13:00:19.715Z,20.58
2023-10-06T13:02:48.146Z,20.66
2023-10-06T13:05:16.576Z,20.63
2023-10-06T13:07:44.635Z,20.57
2023-10-06T13:10:11.308Z,20.62
2023-10-06T13:12:38.790Z,20.75
2023-10-06T13:15:16.840Z,20.68
2023-10-06T13:17:43.552Z,20.93
2023-10-06T13:20:11.671Z,20.58
2023-10-06T13:22:39.603Z,20.60
2023-10-06T13:25:07.454Z,20.62
2023-10-06T13:27:34.865Z,20.53
2023-10-06T13:30:01.936Z,20.63
2023-10-06T13:32:33.112Z,20.75
2023-10-06T13:35:04.153Z,20.89
2023-10-06T13:37:34.537Z,21.24
2023-10-06T13:40:04.000Z,20.69
2023-10-06T13:42:30.959Z,20.75
2023-10-06T13:44:59.872Z,20.75
2023-10-06T13:47:26.919Z,21.01
2023-10-06T13:49:53.636Z,21.15
2023-10-06T13:52:21.887Z,21.25
2023-10-06T13:54:48.328Z,21.23
2023-10-06T13:57:14.865Z,20.94
2023-10-06T13:59:41.797Z,20.87
2023-10-06T14:02:08.491Z,20.98
2023-10-06T14:04:37.613Z,20.84
2023-10-06T14:07:07.360Z,20.97
2023-10-06T14:09:34.694Z,21.11
2023-10-06T14:12:04.394Z,21.26
2023-10-06T14:14:35.306Z,20.71
2023-10-06T14:17:04.589Z,20.99
2023-10-06T14:19:32.510Z,21.05
2023-10-06T14:22:00.645Z,20.86
2023-10-06T14:24:27.426Z,20.64
2023-10-06T14:26:57.074Z,20.64
2023-10-06T14:29:23.586Z,20.44
2023-10-06T14:31:50.677Z,20.09
2023-10-06T14:34:17.533Z,20.09
2023-10-06T14:36:44.428Z,20.12
2023-10-06T14:39:11.481Z,20.04
2023-10-06T14:41:38.645Z,19.94
2023-10-06T14:44:05.658Z,19.87
2023-10-06T14:46:38.599Z,19.99
2023-10-06T14:49:10.638Z,19.94
2023-10-06T14:51:39.151Z,19.92
2023-10-06T14:54:07.066Z,19.94
2023-10-06T14:56:35.644Z,20.01
2023-10-06T14:59:02.529Z,20.06
2023-10-06T15:01:29.577Z,20.08
2023-10-06T15:03:56.190Z,20.16
2023-10-06T15:06:25.735Z,20.11
2023-10-06T15:08:52.580Z,19.99
2023-10-06T15:11:19.557Z,19.97
2023-10-06T15:13:51.091Z,19.80
2023-10-06T15:16:21.172Z,19.74
2023-10-06T15:18:49.595Z,19.71
2023-10-06T15:21:19.622Z,19.59
2023-10-06T15:23:46.632Z,19.53
2023-10-06T15:26:13.243Z,19.41
2023-10-06T15:28:41.710Z,19.30
2023-10-06T15:31:12.625Z,19.25
2023-10-06T15:33:39.426Z,19.13
2023-10-06T15:36:06.487Z,19.02
2023-10-06T15:38:33.965Z,18.95
2023-10-06T15:41:07.993Z,18.85
2023-10-06T15:43:39.522Z,18.76
2023-10-06T15:46:08.815Z,18.64
2023-10-06T15:48:41.034Z,18.59
2023-10-06T15:51:11.507Z,18.48
2023-10-06T15:53:43.969Z,18.45
2023-10-06T15:56:12.555Z,18.40
2023-10-06T15:58:39.521Z,18.36
2023-10-06T16:01:07.368Z,18.28
2023-10-06T16:03:34.354Z,18.24
2023-10-06T16:06:01.748Z,18.18
2023-10-06T16:08:29.919Z,18.13
2023-10-06T16:11:03.259Z,18.11
2023-10-06T16:13:31.248Z,18.06
2023-10-06T16:16:11.279Z,17.99
2023-10-06T16:18:39.224Z,17.88
2023-10-06T16:21:05.640Z,17.78
2023-10-06T16:23:32.626Z,17.79
2023-10-06T16:25:59.160Z,17.71
2023-10-06T16:28:25.676Z,17.67
2023-10-06T16:30:57.985Z,17.62
2023-10-06T16:33:25.072Z,17.57
2023-10-06T16:35:51.946Z,17.49
2023-10-06T16:38:18.792Z,17.44
2023-10-06T16:40:49.012Z,17.35
2023-10-06T16:43:23.027Z,17.27
2023-10-06T16:45:49.936Z,17.21
2023-10-06T16:48:16.937Z,17.15
2023-10-06T16:50:43.818Z,17.06
2023-10-06T16:53:13.792Z,16.99
2023-10-06T16:55:40.884Z,16.96
2023-10-06T16:58:07.747Z,16.84
2023-10-06T17:00:36.043Z,16.78
2023-10-06T17:03:02.802Z,16.72
2023-10-06T17:05:30.049Z,16.68
2023-10-06T17:07:58.360Z,16.61
2023-10-06T17:10:25.876Z,16.58
2023-10-06T17:12:53.694Z,16.66
2023-10-06T17:15:24.486Z,16.69
2023-10-06T17:17:51.960Z,16.56
2023-10-06T17:20:18.970Z,16.44
2023-10-06T17:22:46.236Z,16.44
2023-10-06T17:25:14.363Z,16.37
2023-10-06T17:27:41.279Z,16.34
2023-10-06T17:30:08.485Z,16.32
2023-10-06T17:32:35.248Z,16.36
2023-10-06T17:35:02.182Z,16.35
2023-10-06T17:37:31.091Z,16.38
2023-10-06T17:39:57.979Z,16.42
2023-10-06T17:42:25.187Z,16.35
2023-10-06T17:44:55.426Z,16.29
2023-10-06T17:49:52.294Z,16.06
2023-10-06T17:52:23.941Z,15.97
2023-10-06T17:54:53.878Z,15.89
2023-10-06T17:57:24.051Z,15.82
2023-10-06T17:59:53.325Z,15.76
2023-10-06T18:02:20.992Z,15.70
2023-10-06T18:04:48.010Z,15.64
2023-10-06T18:07:16.796Z,15.47
2023-10-06T18:09:43.599Z,15.43
2023-10-06T18:12:24.806Z,15.39
2023-10-06T18:14:52.814Z,15.31
2023-10-06T18:17:19.391Z,15.18
2023-10-06T18:19:46.038Z,15.14
2023-10-06T18:22:14.015Z,15.08
2023-10-06T18:24:42.214Z,15.00
2023-10-06T18:27:11.864Z,14.99
2023-10-06T18:29:38.620Z,14.91
2023-10-06T18:32:05.722Z,14.77
2023-10-06T18:34:32.624Z,14.73
2023-10-06T18:36:59.265Z,14.66
2023-10-06T18:39:27.248Z,14.51
2023-10-06T18:41:55.333Z,14.46
2023-10-06T18:44:21.948Z,14.37
2023-10-06T18:46:48.938Z,14.25
2023-10-06T18:49:16.094Z,14.13
2023-10-06T18:51:44.572Z,14.01
2023-10-06T18:54:11.241Z,13.93
2023-10-06T18:56:39.209Z,13.82
2023-10-06T18:59:06.350Z,13.71
2023-10-06T19:01:36.518Z,13.62
2023-10-06T19:04:05.300Z,13.50
2023-10-06T19:06:33.684Z,13.39
2023-10-06T19:09:00.467Z,13.43
2023-10-06T19:11:27.038Z,13.37
2023-10-06T19:13:53.836Z,13.29
2023-10-06T19:16:20.578Z,13.11
2023-10-06T19:18:50.031Z,13.01
2023-10-06T19:21:17.316Z,13.04
2023-10-06T19:23:44.196Z,12.92
2023-10-06T19:26:11.136Z,12.89
2023-10-06T19:28:39.143Z,12.80
2023-10-06T19:31:05.839Z,12.73
2023-10-06T19:33:32.274Z,12.75
2023-10-06T19:36:04.215Z,12.76
2023-10-06T19:38:33.146Z,12.62
2023-10-06T19:41:00.099Z,12.55
2023-10-06T19:43:28.045Z,12.41
2023-10-06T19:45:54.574Z,12.40
2023-10-06T19:48:20.999Z,12.38
2023-10-06T19:50:47.753Z,12.28
2023-10-06T19:53:14.469Z,12.16
2023-10-06T19:55:42.513Z,12.10
2023-10-06T19:58:11.415Z,12.05
2023-10-06T20:00:42.402Z,11.96
2023-10-06T20:03:09.369Z,11.83
2023-10-06T20:05:41.859Z,11.84
2023-10-06T20:08:08.766Z,11.75
2023-10-06T20:10:37.333Z,11.69
2023-10-06T20:13:05.409Z,11.63
2023-10-06T20:15:33.648Z,11.65
2023-10-06T20:18:01.184Z,11.61
2023-10-06T20:20:29.137Z,11.54
2023-10-06T20:22:58.455Z,11.45
2023-10-06T20:25:25.417Z,11.41
2023-10-06T20:27:52.935Z,11.33
2023-10-06T20:30:21.799Z,11.27
2023-10-06T20:32:51.490Z,11.30
2023-10-06T20:35:18.026Z,11.35
2023-10-06T20:37:45.079Z,11.35
2023-10-06T20:40:12.577Z,11.17
2023-10-06T20:42:39.080Z,11.17
2023-10-06T20:45:06.666Z,11.22
2023-10-06T20:47:33.203Z,11.13
2023-10-06T20:50:03.188Z,11.01
2023-10-06T20:52:29.797Z,10.91
2023-10-06T20:54:56.469Z,10.84
2023-10-06T20:57:23.438Z,10.82
2023-10-06T20:59:49.921Z,10.89
2023-10-06T21:02:16.390Z,10.85
2023-10-06T21:04:45.947Z,10.78
2023-10-06T21:07:12.466Z,10.65
2023-10-06T21:09:39.456Z,10.63
2023-10-06T21:12:06.759Z,10.64
2023-10-06T21:14:33.242Z,10.64
2023-10-06T21:16:59.681Z,10.45
2023-10-06T21:19:26.196Z,10.37
2023-10-06T21:21:55.584Z,10.28
2023-10-06T21:24:22.213Z,10.45
2023-10-06T21:26:49.002Z,10.49
2023-10-06T21:29:15.709Z,10.39
2023-10-06T21:31:42.119Z,10.12
2023-10-06T21:34:08.846Z,10.04
2023-10-06T21:36:36.083Z,9.85
2023-10-06T21:39:02.609Z,9.83
2023-10-06T21:41:29.312Z,9.82
2023-10-06T21:43:56.034Z,9.69
2023-10-06T21:46:22.546Z,9.63
2023-10-06T21:48:49.218Z,9.68
2023-10-06T21:51:15.571Z,9.74
2023-10-06T21:53:41.958Z,9.72
2023-10-06T21:56:09.722Z,9.85
2023-10-06T21:58:36.492Z,9.71
2023-10-06T22:01:03.304Z,9.79
2023-10-06T22:03:30.018Z,9.67
2023-10-06T22:05:56.783Z,9.67
2023-10-06T22:08:23.202Z,9.54
2023-10-06T22:10:50.082Z,9.47
2023-10-06T22:13:16.740Z,9.46
2023-10-06T22:15:43.836Z,9.51
2023-10-06T22:18:10.375Z,9.41
2023-10-06T22:20:36.890Z,9.32
2023-10-06T22:23:03.671Z,9.34
2023-10-06T22:25:30.115Z,9.27
2023-10-06T22:27:56.920Z,9.32
2023-10-06T22:30:24.299Z,9.19
2023-10-06T22:32:51.622Z,9.06
2023-10-06T22:35:18.135Z,9.02
2023-10-06T22:37:44.647Z,9.01
2023-10-06T22:40:12.072Z,8.99
2023-10-06T22:42:38.585Z,9.18
2023-10-06T22:45:05.707Z,9.13
2023-10-06T22:47:32.106Z,8.99
2023-10-06T22:49:59.160Z,8.92
2023-10-06T22:52:25.613Z,8.82
2023-10-06T22:54:53.388Z,8.81
2023-10-06T22:57:19.740Z,8.75
2023-10-06T22:59:50.551Z,8.72
2023-10-06T23:02:18.278Z,8.70
2023-10-06T23:04:45.121Z,8.76
2023-10-06T23:07:13.822Z,8.72
2023-10-06T23:09:43.636Z,8.69
2023-10-06T23:12:10.056Z,8.46
2023-10-06T23:14:36.431Z,8.47
2023-10-06T23:17:03.171Z,8.39
2023-10-06T23:19:29.759Z,8.38
2023-10-06T23:21:56.354Z,8.46
2023-10-06T23:24:22.869Z,8.31
2023-10-06T23:26:49.242Z,8.27
2023-10-06T23:29:15.633Z,8.32
2023-10-06T23:31:42.068Z,8.35
2023-10-06T23:34:08.799Z,8.40
2023-10-06T23:36:35.573Z,8.27
2023-10-06T23:39:02.005Z,8.10
2023-10-06T23:41:28.416Z,7.99
2023-10-06T23:43:54.841Z,7.95
2023-10-06T23:46:22.872Z,7.94
2023-10-06T23:48:49.389Z,7.87
2023-10-06T23:51:16.135Z,7.85
2023-10-06T23:53:42.867Z,7.82
2023-10-06T23:56:09.533Z,7.83
2023-10-06T23:58:36.007Z,7.87
